createdAt,value
2018-03-04T00:00:14.629Z,29.58
2018-03-04T00:02:42.098Z,27.77
2018-03-04T00:05:09.576Z,27.95
2018-03-04T00:07:37.037Z,27.52
2018-03-04T00:10:04.495Z,29.92
2018-03-04T00:12:32.401Z,29.15
2018-03-04T00:14:59.878Z,29.98
2018-03-04T00:17:27.339Z,28.67
2018-03-04T00:19:54.775Z,30.25
2018-03-04T00:22:33.979Z,26.30
2018-03-04T00:25:01.851Z,26.90
2018-03-04T00:27:31.491Z,30.42
2018-03-04T00:29:58.978Z,26.15
2018-03-04T00:32:29.085Z,27.27
2018-03-04T00:34:57.894Z,30.75
2018-03-04T00:37:26.656Z,26.17
2018-03-04T00:39:54.120Z,25.65
2018-03-04T00:42:22.861Z,29.00
2018-03-04T00:44:50.734Z,25.67
2018-03-04T00:47:18.583Z,28.10
2018-03-04T00:49:46.090Z,24.83
2018-03-04T00:52:13.570Z,27.75
2018-03-04T00:54:41.848Z,26.83
2018-03-04T00:57:09.564Z,29.50
2018-03-04T00:59:37.927Z,26.45
2018-03-04T01:02:06.677Z,28.58
2018-03-04T01:04:34.831Z,25.48
2018-03-04T01:07:02.291Z,26.30
2018-03-04T01:09:29.776Z,32.47
2018-03-04T01:11:57.658Z,23.52
2018-03-04T01:14:25.117Z,27.20
2018-03-04T01:16:53.647Z,25.15
2018-03-04T01:19:21.118Z,30.25
2018-03-04T01:21:48.596Z,26.62
2018-03-04T01:24:16.306Z,28.67
2018-03-04T01:26:43.753Z,31.30
2018-03-04T01:29:11.184Z,27.75
2018-03-04T01:31:39.990Z,30.02
2018-03-04T01:34:07.444Z,27.55
2018-03-04T01:36:34.910Z,32.47
2018-03-04T01:39:03.143Z,29.42
2018-03-04T01:41:30.570Z,27.10
2018-03-04T01:43:58.032Z,27.35
2018-03-04T01:46:27.024Z,30.20
2018-03-04T01:48:55.068Z,26.10
2018-03-04T01:51:22.547Z,26.65
2018-03-04T01:53:50.945Z,28.83
2018-03-04T01:56:23.022Z,29.55
2018-03-04T01:58:50.760Z,31.92
2018-03-04T02:01:19.124Z,26.45
2018-03-04T02:03:46.597Z,26.37
2018-03-04T02:06:14.026Z,28.98
2018-03-04T02:08:41.451Z,25.98
2018-03-04T02:11:09.292Z,32.38
2018-03-04T02:13:36.723Z,29.70
2018-03-04T02:16:04.153Z,28.62
2018-03-04T02:18:31.575Z,29.60
2018-03-04T02:20:59.012Z,29.55
2018-03-04T02:23:26.441Z,28.05
2018-03-04T02:25:53.879Z,34.42
2018-03-04T02:28:21.312Z,30.65
2018-03-04T02:30:49.140Z,31.35
2018-03-04T02:33:16.582Z,29.23
2018-03-04T02:35:44.018Z,29.15
2018-03-04T02:38:11.445Z,31.00
2018-03-04T02:40:38.885Z,25.83
2018-03-04T02:43:06.308Z,30.92
2018-03-04T02:45:33.750Z,28.30
2018-03-04T02:48:01.195Z,29.87
2018-03-04T02:50:28.633Z,30.05
2018-03-04T02:52:56.464Z,28.20
2018-03-04T02:55:23.901Z,31.25
2018-03-04T02:57:51.326Z,26.92
2018-03-04T03:00:18.771Z,28.73
2018-03-04T03:02:46.185Z,29.05
2018-03-04T03:05:13.618Z,31.25
2018-03-04T03:07:41.069Z,29.58
2018-03-04T03:10:08.508Z,30.30
2018-03-04T03:12:35.936Z,28.02
2018-03-04T03:15:03.764Z,26.35
2018-03-04T03:17:31.203Z,28.15
2018-03-04T03:19:58.640Z,25.70
2018-03-04T03:22:26.070Z,30.00
2018-03-04T03:24:53.500Z,30.25
2018-03-04T03:27:20.928Z,29.20
2018-03-04T03:29:48.369Z,26.73
2018-03-04T03:32:15.813Z,28.25
2018-03-04T03:34:43.250Z,25.27
2018-03-04T03:37:10.676Z,30.70
2018-03-04T03:39:38.177Z,29.37
2018-03-04T03:42:05.634Z,28.85
2018-03-04T03:44:33.045Z,28.52
2018-03-04T03:47:00.495Z,28.80
2018-03-04T03:49:27.930Z,31.70
2018-03-04T03:51:55.375Z,27.48
2018-03-04T03:54:22.793Z,28.10
2018-03-04T03:56:50.229Z,27.62
2018-03-04T03:59:17.662Z,29.92
2018-03-04T04:01:45.103Z,28.20
2018-03-04T04:04:12.536Z,27.42
2018-03-04T04:06:40.372Z,28.40
2018-03-04T04:09:07.799Z,27.52
2018-03-04T04:11:35.235Z,30.10
2018-03-04T04:14:02.663Z,28.27
2018-03-04T04:16:30.086Z,25.48
2018-03-04T04:18:57.517Z,31.87
2018-03-04T04:21:24.962Z,30.35
2018-03-04T04:23:52.408Z,28.42
2018-03-04T04:26:20.244Z,28.62
2018-03-04T04:28:47.677Z,29.50
2018-03-04T04:31:15.112Z,27.83
2018-03-04T04:33:42.559Z,28.27
2018-03-04T04:36:09.975Z,28.98
2018-03-04T04:38:37.395Z,29.55
2018-03-04T04:41:04.837Z,26.95
2018-03-04T04:43:32.272Z,29.15
2018-03-04T04:45:59.728Z,28.23
2018-03-04T04:48:27.158Z,29.45
2018-03-04T04:50:54.994Z,30.30
2018-03-04T04:53:22.424Z,27.42
2018-03-04T04:55:49.860Z,26.90
2018-03-04T04:58:17.296Z,26.58
2018-03-04T05:00:44.728Z,28.02
2018-03-04T05:03:12.150Z,28.17
2018-03-04T05:05:39.592Z,29.08
2018-03-04T05:08:07.025Z,28.83
2018-03-04T05:10:34.865Z,27.92
2018-03-04T05:13:02.294Z,28.58
2018-03-04T05:15:29.735Z,32.60
2018-03-04T05:17:57.160Z,29.50
2018-03-04T05:20:25.436Z,30.27
2018-03-04T05:22:52.862Z,29.40
2018-03-04T05:25:20.288Z,26.40
2018-03-04T05:27:47.740Z,34.33
2018-03-04T05:30:15.167Z,28.48
2018-03-04T05:32:42.992Z,34.72
2018-03-04T05:35:10.420Z,27.87
2018-03-04T05:37:37.873Z,27.87
2018-03-04T05:40:05.309Z,31.83
2018-03-04T05:42:32.755Z,27.75
2018-03-04T05:45:00.564Z,28.12
2018-03-04T05:47:28.028Z,29.50
2018-03-04T05:49:55.452Z,30.23
2018-03-04T05:52:22.896Z,27.37
2018-03-04T05:54:50.339Z,27.20
2018-03-04T05:57:18.171Z,25.90
2018-03-04T05:59:45.592Z,27.58
2018-03-04T06:02:13.034Z,29.23
2018-03-04T06:04:40.451Z,28.55
2018-03-04T06:07:07.885Z,29.83
2018-03-04T06:09:35.315Z,28.77
2018-03-04T06:12:02.774Z,27.23
2018-03-04T06:14:30.227Z,27.98
2018-03-04T06:16:57.667Z,29.40
2018-03-04T06:19:25.092Z,28.75
2018-03-04T06:21:52.525Z,29.20
2018-03-04T06:24:19.958Z,29.45
2018-03-04T06:26:47.397Z,30.25
2018-03-04T06:29:14.884Z,31.90
2018-03-04T06:31:44.197Z,27.37
2018-03-04T06:34:11.632Z,26.73
2018-03-04T06:36:39.064Z,29.33
2018-03-04T06:39:06.497Z,25.52
2018-03-04T06:41:33.941Z,30.15
2018-03-04T06:44:01.362Z,28.87
2018-03-04T06:46:28.808Z,31.30
2018-03-04T06:48:56.282Z,28.80
2018-03-04T06:51:23.742Z,30.67
2018-03-04T06:53:51.189Z,30.23
2018-03-04T06:56:18.632Z,27.58
2018-03-04T06:58:46.068Z,27.08
2018-03-04T07:01:13.911Z,29.65
2018-03-04T07:03:41.365Z,30.17
2018-03-04T07:06:08.813Z,28.55
2018-03-04T07:08:36.245Z,30.98
2018-03-04T07:11:03.706Z,31.52
2018-03-04T07:13:31.141Z,30.23
2018-03-04T07:15:58.597Z,31.85
2018-03-04T07:18:26.121Z,28.30
2018-03-04T07:20:53.584Z,31.55
2018-03-04T07:23:21.437Z,29.27
2018-03-04T07:25:49.266Z,29.55
2018-03-04T07:28:16.702Z,30.05
2018-03-04T07:30:44.133Z,33.25
2018-03-04T07:33:11.592Z,31.23
2018-03-04T07:35:38.996Z,30.45
2018-03-04T07:38:06.448Z,29.55
2018-03-04T07:40:33.892Z,31.20
2018-03-04T07:43:01.339Z,29.60
2018-03-04T07:45:28.772Z,30.12
2018-03-04T07:47:56.257Z,32.05
2018-03-04T07:50:23.682Z,31.15
2018-03-04T07:52:51.508Z,29.98
2018-03-04T07:55:18.976Z,32.67
2018-03-04T07:57:46.404Z,30.48
2018-03-04T08:00:13.864Z,32.25
2018-03-04T08:02:41.288Z,33.33
2018-03-04T08:05:08.762Z,27.52
2018-03-04T08:07:36.185Z,31.25
2018-03-04T08:10:04.127Z,30.67
2018-03-04T08:12:31.584Z,32.88
2018-03-04T08:14:59.036Z,28.25
2018-03-04T08:17:26.475Z,30.33
2018-03-04T08:19:53.952Z,28.33
2018-03-04T08:22:21.397Z,32.25
2018-03-04T08:25:00.438Z,29.37
2018-03-04T08:27:40.434Z,33.55
2018-03-04T08:30:07.861Z,29.20
2018-03-04T08:32:35.296Z,35.15
2018-03-04T08:35:02.727Z,32.97
2018-03-04T08:37:30.169Z,31.52
2018-03-04T08:39:57.636Z,31.25
2018-03-04T08:42:25.072Z,34.58
2018-03-04T08:44:52.508Z,29.40
2018-03-04T08:47:20.337Z,31.05
2018-03-04T08:49:47.772Z,30.92
2018-03-04T08:52:15.208Z,34.03
2018-03-04T08:54:42.630Z,31.58
2018-03-04T08:57:10.112Z,37.35
2018-03-04T08:59:37.568Z,35.28
2018-03-04T09:02:05.020Z,28.95
2018-03-04T09:04:32.472Z,32.58
2018-03-04T09:06:59.905Z,34.67
2018-03-04T09:09:27.336Z,31.48
2018-03-04T09:11:54.780Z,54.72
2018-03-04T09:14:22.218Z,35.15
2018-03-04T09:16:49.662Z,36.53
2018-03-04T09:19:17.085Z,31.83
2018-03-04T09:21:44.530Z,32.38
2018-03-04T09:24:11.981Z,32.45
2018-03-04T09:26:39.444Z,32.85
2018-03-04T09:29:06.878Z,31.92
2018-03-04T09:31:34.316Z,33.85
2018-03-04T09:34:01.780Z,32.60
2018-03-04T09:36:29.212Z,30.05
2018-03-04T09:38:56.650Z,32.53
2018-03-04T09:41:24.072Z,37.38
2018-03-04T09:43:51.521Z,33.60
2018-03-04T09:46:18.954Z,34.47
2018-03-04T09:48:46.388Z,29.65
2018-03-04T09:51:13.832Z,35.70
2018-03-04T09:53:42.184Z,32.00
2018-03-04T09:56:09.634Z,33.88
2018-03-04T09:58:37.090Z,32.08
2018-03-04T10:01:04.534Z,30.37
2018-03-04T10:03:31.968Z,36.35
2018-03-04T10:05:59.404Z,34.22
2018-03-04T10:08:26.873Z,35.53
2018-03-04T10:10:54.304Z,33.35
2018-03-04T10:13:22.144Z,31.48
2018-03-04T10:15:49.581Z,32.33
2018-03-04T10:18:17.024Z,34.13
2018-03-04T10:20:44.461Z,30.75
2018-03-04T10:23:11.901Z,30.60
2018-03-04T10:25:39.348Z,33.33
2018-03-04T10:28:06.808Z,32.30
2018-03-04T10:30:34.228Z,36.97
2018-03-04T10:33:01.744Z,31.17
2018-03-04T10:35:29.173Z,29.70
2018-03-04T10:37:56.616Z,32.55
2018-03-04T10:40:24.069Z,31.77
2018-03-04T10:55:24.337Z,31.25
2018-03-04T10:57:51.773Z,29.35
2018-03-04T11:00:24.187Z,33.35
2018-03-04T11:02:51.624Z,29.45
2018-03-04T11:05:19.055Z,33.22
2018-03-04T11:07:46.488Z,33.33
2018-03-04T11:10:14.320Z,28.77
2018-03-04T11:12:41.764Z,31.50
2018-03-04T11:15:09.211Z,31.52
2018-03-04T11:17:36.652Z,30.02
2018-03-04T11:20:04.081Z,32.30
2018-03-04T11:22:31.538Z,31.10
2018-03-04T11:24:58.992Z,31.92
2018-03-04T11:27:26.415Z,32.47
2018-03-04T11:29:53.870Z,29.80
2018-03-04T11:43:46.316Z,30.52
2018-03-04T11:46:13.739Z,30.20
2018-03-04T11:48:41.184Z,29.50
2018-03-04T11:51:08.613Z,28.67
2018-03-04T11:53:36.057Z,32.72
2018-03-04T11:56:03.887Z,30.73
2018-03-04T11:58:31.334Z,29.70
2018-03-04T12:00:58.778Z,28.50
2018-03-04T12:03:26.200Z,31.37
2018-03-04T12:05:53.641Z,30.02
2018-03-04T12:08:21.468Z,28.60
2018-03-04T12:10:48.904Z,29.58
2018-03-04T12:13:16.344Z,30.08
2018-03-04T12:15:43.784Z,31.75
2018-03-04T12:18:11.240Z,34.50
2018-03-04T12:20:38.664Z,29.15
2018-03-04T12:23:06.108Z,31.45
2018-03-04T12:25:33.556Z,34.15
2018-03-04T12:28:01.001Z,28.83
2018-03-04T12:30:28.429Z,30.62
2018-03-04T12:32:56.440Z,27.45
2018-03-04T12:35:23.890Z,29.23
2018-03-04T12:37:51.322Z,30.95
2018-03-04T12:40:18.763Z,28.20
2018-03-04T12:42:46.190Z,29.50
2018-03-04T12:45:13.636Z,28.95
2018-03-04T12:47:41.080Z,28.00
2018-03-04T12:50:08.522Z,30.50
2018-03-04T12:52:35.961Z,28.60
2018-03-04T12:55:03.410Z,27.60
2018-03-04T12:57:30.864Z,27.67
2018-03-04T12:59:58.360Z,28.23
2018-03-04T13:02:26.333Z,28.43
2018-03-04T13:04:53.788Z,27.77
2018-03-04T13:07:21.225Z,28.27
2018-03-04T13:09:48.674Z,42.70
2018-03-04T13:12:16.105Z,28.20
2018-03-04T13:14:43.949Z,33.93
2018-03-04T13:17:11.383Z,28.25
2018-03-04T13:19:38.821Z,28.07
2018-03-04T13:22:06.264Z,25.52
2018-03-04T13:24:33.698Z,24.43
2018-03-04T13:27:01.524Z,28.33
2018-03-04T13:29:28.973Z,28.37
2018-03-04T13:31:56.409Z,24.13
2018-03-04T13:34:23.878Z,24.20
2018-03-04T13:36:51.293Z,24.00
2018-03-04T13:39:18.741Z,28.12
2018-03-04T13:41:46.169Z,25.60
2018-03-04T13:44:13.608Z,24.55
2018-03-04T13:46:41.184Z,26.63
2018-03-04T13:49:08.630Z,24.60
2018-03-04T13:51:36.061Z,27.37
2018-03-04T13:54:03.509Z,26.25
2018-03-04T13:56:30.972Z,26.87
2018-03-04T13:58:58.404Z,29.37
2018-03-04T14:01:25.860Z,20.23
2018-03-04T14:03:53.309Z,20.43
2018-03-04T14:06:20.743Z,35.50
2018-03-04T14:08:48.185Z,28.23
2018-03-04T14:11:15.630Z,16.70
2018-03-04T14:13:43.069Z,14.10
2018-03-04T14:16:10.515Z,14.83
2018-03-04T14:18:37.968Z,13.80
2018-03-04T14:21:05.405Z,14.27
2018-03-04T14:23:33.249Z,14.03
2018-03-04T14:26:00.754Z,16.17
2018-03-04T14:28:28.151Z,18.63
2018-03-04T14:30:55.584Z,17.93
2018-03-04T14:33:23.026Z,17.70
2018-03-04T14:35:50.465Z,17.27
2018-03-04T14:38:17.893Z,21.17
2018-03-04T14:40:45.340Z,17.80
2018-03-04T14:43:12.776Z,17.53
2018-03-04T14:45:40.216Z,20.10
2018-03-04T14:48:07.653Z,19.57
2018-03-04T14:50:35.114Z,17.60
2018-03-04T14:55:36.317Z,18.67
2018-03-04T14:58:03.754Z,17.07
2018-03-04T15:00:31.205Z,18.10
2018-03-04T15:02:58.646Z,18.33
2018-03-04T15:05:26.111Z,18.80
2018-03-04T15:07:53.544Z,17.70
2018-03-04T15:10:20.999Z,18.40
2018-03-04T15:12:48.821Z,17.73
2018-03-04T15:15:16.261Z,18.60
2018-03-04T15:17:43.692Z,17.80
2018-03-04T15:20:11.136Z,16.20
2018-03-04T15:22:38.574Z,19.33
2018-03-04T15:25:06.415Z,16.40
2018-03-04T15:27:33.841Z,21.10
2018-03-04T15:30:01.285Z,17.70
2018-03-04T15:32:28.712Z,16.83
2018-03-04T15:34:56.165Z,17.10
2018-03-04T15:37:23.993Z,16.07
2018-03-04T15:39:51.447Z,18.60
2018-03-04T15:42:18.877Z,16.97
2018-03-04T15:44:46.320Z,15.87
2018-03-04T15:47:13.760Z,17.27
2018-03-04T15:49:41.608Z,18.93
2018-03-04T15:52:09.028Z,17.57
2018-03-04T15:54:36.483Z,18.60
2018-03-04T15:57:03.916Z,16.73
2018-03-04T15:59:31.356Z,19.23
2018-03-04T16:01:58.791Z,15.43
2018-03-04T16:04:26.226Z,20.40
2018-03-04T16:06:53.659Z,18.93
2018-03-04T16:09:21.096Z,19.93
2018-03-04T16:11:48.538Z,19.93
2018-03-04T16:14:15.980Z,20.63
2018-03-04T16:16:43.820Z,20.50
2018-03-04T16:19:11.260Z,19.87
2018-03-04T16:21:38.734Z,19.83
2018-03-04T16:24:06.136Z,19.13
2018-03-04T16:26:33.572Z,20.00
2018-03-04T16:29:01.412Z,20.70
2018-03-04T16:31:28.849Z,21.93
2018-03-04T16:33:56.334Z,17.70
2018-03-04T16:36:23.765Z,18.37
2018-03-04T16:38:51.195Z,19.80
2018-03-04T16:41:18.653Z,20.40
2018-03-04T16:43:46.079Z,20.40
2018-03-04T16:46:13.913Z,18.73
2018-03-04T16:48:41.343Z,21.17
2018-03-04T16:51:08.778Z,18.53
2018-03-04T16:53:36.213Z,21.05
2018-03-04T16:56:03.638Z,20.73
2018-03-04T16:58:31.087Z,19.70
2018-03-04T17:00:58.524Z,22.70
2018-03-04T17:03:25.958Z,19.60
2018-03-04T17:05:53.392Z,22.43
2018-03-04T17:08:21.229Z,21.60
2018-03-04T17:10:48.672Z,21.62
2018-03-04T17:13:16.104Z,21.08
2018-03-04T17:15:43.546Z,23.77
2018-03-04T17:18:10.979Z,22.00
2018-03-04T17:20:38.414Z,21.70
2018-03-04T17:23:05.849Z,21.00
2018-03-04T17:25:33.303Z,20.08
2018-03-04T17:28:00.727Z,20.85
2018-03-04T17:30:28.183Z,21.62
2018-03-04T17:32:56.008Z,21.70
2018-03-04T17:35:23.450Z,19.08
2018-03-04T17:37:50.890Z,18.42
2018-03-04T17:40:18.337Z,19.90
2018-03-04T17:42:45.765Z,20.55
2018-03-04T17:45:13.217Z,20.63
2018-03-04T17:47:40.665Z,20.17
2018-03-04T17:50:08.513Z,19.90
2018-03-04T17:52:35.945Z,21.20
2018-03-04T17:55:03.384Z,20.90
2018-03-04T17:57:30.834Z,20.33
2018-03-04T17:59:58.310Z,18.05
2018-03-04T18:02:25.772Z,19.33
2018-03-04T18:04:53.249Z,21.83
2018-03-04T18:07:20.704Z,18.90
2018-03-04T18:09:48.173Z,17.08
2018-03-04T18:12:15.589Z,20.15
2018-03-04T18:14:43.056Z,20.37
2018-03-04T18:17:10.521Z,19.17
2018-03-04T18:19:37.997Z,20.00
2018-03-04T18:22:05.420Z,19.12
2018-03-04T18:24:32.857Z,19.17
2018-03-04T18:27:00.284Z,21.35
2018-03-04T18:29:28.123Z,17.00
2018-03-04T18:31:55.564Z,19.02
2018-03-04T18:34:23.004Z,16.77
2018-03-04T18:36:50.461Z,16.87
2018-03-04T18:39:17.899Z,18.10
2018-03-04T18:41:45.335Z,15.07
2018-03-04T18:44:12.775Z,17.87
2018-03-04T18:46:40.266Z,15.32
2018-03-04T18:49:07.725Z,17.67
2018-03-04T18:51:35.171Z,14.73
2018-03-04T18:54:02.611Z,14.25
2018-03-04T18:56:30.043Z,14.07
2018-03-04T18:58:57.481Z,13.30
2018-03-04T19:01:24.957Z,12.98
2018-03-04T19:03:52.403Z,13.03
2018-03-04T19:06:19.849Z,13.13
2018-03-04T19:08:47.292Z,12.35
2018-03-04T19:11:14.721Z,11.85
2018-03-04T19:13:42.549Z,13.20
2018-03-04T19:16:10.017Z,11.68
2018-03-04T19:18:37.460Z,12.00
2018-03-04T19:21:04.940Z,12.30
2018-03-04T19:23:32.369Z,12.82
2018-03-04T19:25:59.807Z,11.50
2018-03-04T19:28:27.266Z,10.43
2018-03-04T19:30:54.687Z,11.65
2018-03-04T19:33:22.144Z,10.65
2018-03-04T19:35:49.572Z,11.05
2018-03-04T19:38:17.010Z,9.10
2018-03-04T19:40:44.453Z,8.40
2018-03-04T19:43:11.877Z,8.93
2018-03-04T19:45:39.313Z,8.80
2018-03-04T19:48:07.145Z,8.65
2018-03-04T19:50:34.567Z,9.35
2018-03-04T19:53:02.008Z,8.10
2018-03-04T19:55:29.449Z,9.98
2018-03-04T19:57:56.875Z,9.32
2018-03-04T20:00:24.316Z,9.05
2018-03-04T20:02:51.747Z,9.25
2018-03-04T20:05:19.183Z,8.18
2018-03-04T20:07:47.028Z,11.48
2018-03-04T20:10:14.464Z,10.65
2018-03-04T20:12:41.912Z,9.95
2018-03-04T20:15:09.357Z,11.32
2018-03-04T20:17:36.846Z,10.98
2018-03-04T20:20:04.264Z,12.63
2018-03-04T20:22:31.717Z,10.57
2018-03-04T20:24:59.144Z,10.05
2018-03-04T20:27:26.589Z,8.70
2018-03-04T20:29:54.016Z,10.27
2018-03-04T20:32:21.479Z,10.95
2018-03-04T20:34:48.903Z,10.30
2018-03-04T20:37:16.342Z,10.48
2018-03-04T20:39:43.796Z,11.97
2018-03-04T20:42:11.232Z,13.07
2018-03-04T20:44:39.073Z,11.10
2018-03-04T20:47:06.535Z,11.45
2018-03-04T20:49:33.964Z,10.77
2018-03-04T20:52:01.417Z,12.50
2018-03-04T20:54:28.839Z,10.60
2018-03-04T20:56:56.286Z,11.25
2018-03-04T20:59:23.765Z,12.18
2018-03-04T21:01:51.204Z,11.43
2018-03-04T21:04:18.645Z,10.70
2018-03-04T21:06:46.088Z,11.00
2018-03-04T21:09:13.525Z,11.57
2018-03-04T21:11:40.960Z,12.70
2018-03-04T21:14:08.396Z,10.48
2018-03-04T21:16:35.837Z,11.80
2018-03-04T21:19:03.570Z,11.27
2018-03-04T21:21:31.009Z,12.20
2018-03-04T21:23:58.445Z,13.20
2018-03-04T21:26:25.894Z,11.38
2018-03-04T21:28:53.880Z,9.60
2018-03-04T21:31:21.334Z,9.65
2018-03-04T21:33:48.768Z,8.60
2018-03-04T21:36:16.259Z,8.95
2018-03-04T21:38:43.640Z,9.85
2018-03-04T21:41:11.082Z,12.10
2018-03-04T21:43:38.511Z,12.32
2018-03-04T21:46:05.943Z,10.20
2018-03-04T21:48:33.380Z,11.90
2018-03-04T21:51:01.234Z,11.77
2018-03-04T21:53:29.068Z,11.20
2018-03-04T21:55:56.495Z,14.02
2018-03-04T21:58:23.936Z,13.10
2018-03-04T22:00:51.368Z,13.48
2018-03-04T22:03:18.837Z,12.55
2018-03-04T22:05:46.277Z,11.82
2018-03-04T22:08:13.786Z,11.45
2018-03-04T22:10:41.229Z,10.48
2018-03-04T22:13:08.665Z,11.70
2018-03-04T22:15:36.095Z,12.07
2018-03-04T22:18:03.532Z,11.93
2018-03-04T22:20:30.965Z,11.70
2018-03-04T22:22:58.405Z,12.07
2018-03-04T22:25:25.841Z,11.48
2018-03-04T22:27:53.674Z,11.80
2018-03-04T22:30:21.101Z,9.35
2018-03-04T22:32:48.549Z,12.30
2018-03-04T22:35:15.976Z,9.65
2018-03-04T22:37:43.412Z,10.18
2018-03-04T22:40:10.884Z,9.23
2018-03-04T22:42:38.309Z,10.82
2018-03-04T22:45:05.737Z,11.27
2018-03-04T22:47:33.173Z,9.23
2018-03-04T22:50:00.637Z,10.55
2018-03-04T22:52:28.461Z,8.88
2018-03-04T22:54:55.903Z,10.68
2018-03-04T22:57:23.352Z,10.02
2018-03-04T22:59:50.776Z,11.23
2018-03-04T23:02:18.216Z,10.82
2018-03-04T23:04:45.663Z,8.80
2018-03-04T23:07:13.097Z,10.20
2018-03-04T23:09:40.528Z,9.75
2018-03-04T23:12:07.960Z,9.48
2018-03-04T23:14:35.393Z,9.30
2018-03-04T23:17:03.237Z,10.85
2018-03-04T23:19:30.677Z,11.05
2018-03-04T23:21:58.121Z,9.38
2018-03-04T23:24:25.562Z,10.23
2018-03-04T23:26:52.999Z,10.00
2018-03-04T23:29:20.432Z,9.57
2018-03-04T23:31:47.868Z,10.27
2018-03-04T23:34:15.319Z,9.38
2018-03-04T23:36:42.753Z,10.40
2018-03-04T23:39:10.200Z,12.05
2018-03-04T23:41:37.624Z,9.10
2018-03-04T23:44:05.484Z,11.27
2018-03-04T23:46:33.332Z,10.45
2018-03-04T23:49:00.778Z,9.73
2018-03-04T23:51:28.212Z,10.52
2018-03-04T23:53:55.669Z,10.15
2018-03-04T23:56:23.109Z,10.73
2018-03-04T23:58:50.538Z,9.38
